createdAt,value
2019-04-16T00:02:26.424Z,18.40
2019-04-16T00:05:07.310Z,19.13
2019-04-16T00:07:54.389Z,20.63
2019-04-16T00:10:55.969Z,18.50
2019-04-16T00:13:45.094Z,18.00
2019-04-16T00:16:15.199Z,19.20
2019-04-16T00:18:56.706Z,21.57
2019-04-16T00:21:38.442Z,21.00
2019-04-16T00:24:28.077Z,18.43
2019-04-16T00:26:59.433Z,18.87
2019-04-16T00:29:33.129Z,19.70
2019-04-16T00:32:07.917Z,21.07
2019-04-16T00:34:37.138Z,21.80
2019-04-16T00:37:07.258Z,20.40
2019-04-16T00:39:37.425Z,18.53
2019-04-16T00:42:08.856Z,20.83
2019-04-16T00:44:39.118Z,21.90
2019-04-16T00:47:09.225Z,19.27
2019-04-16T00:49:39.369Z,21.77
2019-04-16T00:52:09.554Z,18.10
2019-04-16T00:54:42.483Z,22.27
2019-04-16T00:57:11.605Z,20.10
2019-04-16T00:59:41.782Z,19.20
2019-04-16T01:02:12.509Z,19.62
2019-04-16T01:04:42.686Z,19.80
2019-04-16T01:07:13.050Z,20.50
2019-04-16T01:09:43.124Z,19.60
2019-04-16T01:12:13.293Z,19.35
2019-04-16T01:14:43.513Z,20.70
2019-04-16T01:17:13.719Z,22.40
2019-04-16T01:19:43.865Z,19.40
2019-04-16T01:22:16.062Z,16.50
2019-04-16T01:24:45.902Z,18.33
2019-04-16T01:27:16.487Z,20.63
2019-04-16T01:29:46.659Z,19.60
2019-04-16T01:32:42.470Z,18.40
2019-04-16T01:35:30.565Z,17.87
2019-04-16T01:38:36.084Z,20.95
2019-04-16T01:41:11.753Z,22.17
2019-04-16T01:43:42.943Z,20.20
2019-04-16T01:46:13.042Z,19.53
2019-04-16T01:48:43.235Z,22.00
2019-04-16T01:51:15.355Z,23.40
2019-04-16T01:53:45.141Z,18.83
2019-04-16T01:56:15.334Z,22.60
2019-04-16T01:58:45.702Z,21.73
2019-04-16T02:01:16.324Z,23.47
2019-04-16T02:03:48.868Z,21.63
2019-04-16T02:06:18.752Z,21.10
2019-04-16T02:08:48.881Z,21.70
2019-04-16T02:11:19.058Z,24.30
2019-04-16T02:13:49.230Z,22.70
2019-04-16T02:16:22.365Z,20.73
2019-04-16T02:18:52.333Z,22.83
2019-04-16T02:21:22.466Z,22.17
2019-04-16T02:23:52.811Z,21.37
2019-04-16T02:26:23.412Z,20.57
2019-04-16T02:28:56.440Z,21.30
2019-04-16T02:31:26.328Z,19.30
2019-04-16T02:33:56.473Z,24.73
2019-04-16T02:36:26.862Z,22.23
2019-04-16T02:38:56.984Z,20.97
2019-04-16T02:41:27.117Z,19.63
2019-04-16T02:43:57.189Z,22.67
2019-04-16T02:46:31.211Z,22.27
2019-04-16T02:48:59.279Z,19.13
2019-04-16T02:51:50.322Z,20.77
2019-04-16T02:54:33.905Z,21.67
2019-04-16T02:57:27.952Z,21.87
2019-04-16T03:00:01.771Z,20.00
2019-04-16T03:02:53.612Z,21.53
2019-04-16T03:05:29.816Z,20.93
2019-04-16T03:08:01.455Z,22.73
2019-04-16T03:10:32.577Z,22.73
2019-04-16T03:13:03.299Z,19.57
2019-04-16T03:15:55.915Z,23.80
2019-04-16T03:18:32.252Z,21.50
2019-04-16T03:21:02.505Z,23.33
2019-04-16T03:23:36.502Z,21.00
2019-04-16T03:26:05.701Z,19.67
2019-04-16T03:28:35.890Z,22.70
2019-04-16T03:31:08.798Z,19.63
2019-04-16T03:33:38.224Z,24.87
2019-04-16T03:36:08.363Z,18.93
2019-04-16T03:38:41.916Z,22.90
2019-04-16T03:41:10.440Z,24.17
2019-04-16T03:43:40.505Z,23.17
2019-04-16T03:46:13.102Z,19.83
2019-04-16T03:48:43.573Z,23.40
2019-04-16T03:51:13.775Z,22.40
2019-04-16T03:53:46.533Z,22.70
2019-04-16T03:56:16.465Z,20.77
2019-04-16T03:58:47.790Z,21.20
2019-04-16T04:01:17.921Z,22.37
2019-04-16T04:03:48.322Z,21.63
2019-04-16T04:06:18.544Z,28.43
2019-04-16T04:08:51.619Z,24.80
2019-04-16T04:11:20.487Z,25.00
2019-04-16T04:13:50.934Z,23.97
2019-04-16T04:16:21.385Z,25.00
2019-04-16T04:18:51.404Z,29.00
2019-04-16T04:21:22.650Z,25.10
2019-04-16T04:23:52.871Z,27.40
2019-04-16T04:26:22.968Z,25.50
2019-04-16T04:28:53.006Z,25.67
2019-04-16T04:31:23.361Z,22.97
2019-04-16T04:33:53.418Z,28.63
2019-04-16T04:36:27.052Z,26.30
2019-04-16T04:38:55.370Z,24.57
2019-04-16T04:41:25.504Z,27.93
2019-04-16T04:43:55.580Z,26.73
2019-04-16T04:46:25.690Z,26.80
2019-04-16T04:48:59.930Z,27.30
2019-04-16T04:51:27.540Z,24.60
2019-04-16T04:53:57.838Z,27.93
2019-04-16T04:56:28.595Z,28.27
2019-04-16T04:58:59.063Z,34.10
2019-04-16T05:01:30.474Z,27.53
2019-04-16T05:04:21.033Z,26.57
2019-04-16T05:06:54.416Z,27.50
2019-04-16T05:09:23.945Z,24.60
2019-04-16T05:11:54.096Z,26.17
2019-04-16T05:14:25.171Z,31.37
2019-04-16T05:16:56.258Z,31.93
2019-04-16T05:19:26.580Z,32.30
2019-04-16T05:21:56.786Z,31.03
2019-04-16T05:24:29.141Z,28.40
2019-04-16T05:26:58.837Z,26.90
2019-04-16T05:29:28.955Z,29.23
2019-04-16T05:31:59.077Z,28.60
2019-04-16T05:34:29.232Z,29.47
2019-04-16T05:36:59.642Z,25.57
2019-04-16T05:39:30.850Z,30.97
2019-04-16T05:42:00.952Z,30.00
2019-04-16T05:44:33.970Z,25.07
2019-04-16T05:47:03.099Z,29.53
2019-04-16T05:49:33.269Z,28.27
2019-04-16T05:52:04.157Z,31.73
2019-04-16T05:55:16.825Z,29.53
2019-04-16T05:57:45.003Z,31.57
2019-04-16T06:00:30.821Z,25.97
2019-04-16T06:03:01.005Z,23.93
2019-04-16T06:05:31.169Z,27.50
2019-04-16T06:08:12.000Z,27.73
2019-04-16T06:10:42.455Z,26.87
2019-04-16T06:13:35.779Z,26.67
2019-04-16T06:16:17.271Z,26.17
2019-04-16T06:18:57.024Z,21.87
2019-04-16T06:21:41.130Z,24.37
2019-04-16T06:24:36.165Z,22.87
2019-04-16T06:27:35.025Z,23.65
2019-04-16T06:30:23.677Z,28.20
2019-04-16T06:33:00.808Z,26.50
2019-04-16T06:35:46.583Z,26.70
2019-04-16T06:38:25.792Z,31.17
2019-04-16T06:41:40.194Z,23.40
2019-04-16T06:43:59.654Z,24.40
2019-04-16T06:46:47.733Z,25.70
2019-04-16T06:49:36.124Z,22.20
2019-04-16T06:52:30.423Z,24.13
2019-04-16T06:55:22.703Z,22.77
2019-04-16T06:58:12.584Z,21.60
2019-04-16T07:01:06.922Z,20.97
2019-04-16T07:03:59.553Z,20.90
2019-04-16T07:06:39.594Z,19.37
2019-04-16T07:09:23.506Z,21.10
2019-04-16T07:14:29.087Z,23.30
2019-04-16T07:17:00.192Z,19.10
2019-04-16T07:19:31.037Z,26.07
2019-04-16T07:22:01.157Z,27.10
2019-04-16T07:24:34.396Z,22.00
2019-04-16T07:27:03.810Z,21.33
2019-04-16T07:29:38.692Z,27.47
2019-04-16T07:32:29.473Z,20.57
2019-04-16T07:35:28.198Z,23.83
2019-04-16T07:38:35.216Z,24.40
2019-04-16T07:41:23.723Z,24.33
2019-04-16T07:44:11.896Z,24.30
2019-04-16T07:47:00.117Z,18.43
2019-04-16T07:49:47.738Z,17.30
2019-04-16T07:52:41.907Z,20.95
2019-04-16T07:55:34.580Z,19.80
2019-04-16T07:58:04.823Z,21.40
2019-04-16T08:00:40.175Z,15.07
2019-04-16T08:03:07.607Z,18.35
2019-04-16T08:05:40.930Z,19.60
2019-04-16T08:08:10.622Z,16.07
2019-04-16T08:10:41.782Z,19.10
2019-04-16T08:13:19.112Z,25.23
2019-04-16T08:15:49.323Z,18.20
2019-04-16T08:18:20.781Z,23.97
2019-04-16T08:21:01.217Z,22.90
2019-04-16T08:23:38.791Z,16.60
2019-04-16T08:26:11.444Z,19.30
2019-04-16T08:28:39.280Z,20.33
2019-04-16T08:31:14.612Z,18.70
2019-04-16T08:33:44.884Z,19.20
2019-04-16T08:36:16.622Z,22.45
2019-04-16T08:38:46.726Z,21.53
2019-04-16T08:41:21.384Z,22.13
2019-04-16T08:43:48.712Z,23.77
2019-04-16T08:46:20.615Z,22.60
2019-04-16T08:48:54.051Z,18.23
2019-04-16T08:51:30.175Z,20.53
2019-04-16T08:53:54.555Z,22.37
2019-04-16T08:56:24.782Z,20.47
2019-04-16T08:58:58.614Z,19.33
2019-04-16T09:01:32.266Z,15.43
2019-04-16T09:04:04.141Z,20.68
2019-04-16T09:06:34.411Z,22.43
2019-04-16T09:09:24.670Z,21.10
2019-04-16T09:12:01.059Z,21.70
2019-04-16T09:14:34.316Z,18.30
2019-04-16T09:17:11.609Z,20.70
2019-04-16T09:19:44.650Z,21.63
2019-04-16T09:22:16.770Z,20.63
2019-04-16T09:24:59.081Z,23.00
2019-04-16T09:27:37.669Z,19.77
2019-04-16T09:30:59.285Z,20.43
2019-04-16T09:33:44.721Z,18.40
2019-04-16T09:36:29.642Z,19.50
2019-04-16T09:39:22.262Z,21.67
2019-04-16T09:41:57.727Z,23.33
2019-04-16T09:44:31.522Z,20.13
2019-04-16T09:47:00.521Z,20.00
2019-04-16T09:49:31.133Z,17.70
2019-04-16T09:52:03.780Z,19.47
2019-04-16T09:54:33.155Z,20.20
2019-04-16T09:57:05.609Z,17.05
2019-04-16T09:59:54.807Z,16.47
2019-04-16T10:02:28.084Z,17.90
2019-04-16T10:04:58.290Z,19.40
2019-04-16T10:07:28.621Z,16.33
2019-04-16T10:09:58.766Z,16.77
2019-04-16T10:12:29.026Z,18.70
2019-04-16T10:14:59.203Z,20.23
2019-04-16T10:17:29.275Z,17.90
2019-04-16T10:19:59.497Z,18.63
2019-04-16T10:22:29.895Z,17.80
2019-04-16T10:25:04.247Z,16.60
2019-04-16T10:27:36.990Z,16.70
2019-04-16T10:30:17.964Z,15.17
2019-04-16T10:32:48.057Z,17.40
2019-04-16T10:35:18.497Z,15.87
2019-04-16T10:37:48.809Z,20.67
2019-04-16T10:40:33.963Z,16.40
2019-04-16T10:43:44.830Z,18.23
2019-04-16T10:46:32.357Z,15.63
2019-04-16T10:49:25.720Z,16.43
2019-04-16T10:52:24.210Z,16.47
2019-04-16T10:55:18.795Z,17.97
2019-04-16T10:58:07.653Z,16.70
2019-04-16T11:00:55.498Z,17.63
2019-04-16T11:03:34.407Z,19.50
2019-04-16T11:06:10.881Z,14.38
2019-04-16T11:08:41.307Z,15.13
2019-04-16T11:11:12.122Z,17.12
2019-04-16T11:13:58.575Z,16.87
2019-04-16T11:16:18.311Z,14.28
2019-04-16T11:18:48.900Z,16.03
2019-04-16T11:21:19.226Z,13.23
2019-04-16T11:23:50.833Z,12.73
2019-04-16T11:26:22.899Z,14.80
2019-04-16T11:28:54.610Z,14.50
2019-04-16T11:31:25.571Z,12.83
2019-04-16T11:33:56.060Z,12.30
2019-04-16T11:36:30.595Z,14.20
2019-04-16T11:38:58.086Z,11.53
2019-04-16T11:41:32.862Z,13.87
2019-04-16T11:44:14.923Z,15.80
2019-04-16T11:46:38.325Z,15.00
2019-04-16T11:49:08.477Z,14.53
2019-04-16T11:51:38.659Z,16.40
2019-04-16T11:54:11.413Z,14.33
2019-04-16T11:56:43.041Z,16.07
2019-04-16T11:59:13.480Z,17.00
2019-04-16T12:02:02.920Z,17.97
2019-04-16T12:04:58.796Z,16.30
2019-04-16T12:07:37.370Z,12.13
2019-04-16T12:10:27.154Z,15.10
2019-04-16T12:13:11.011Z,11.53
2019-04-16T12:16:00.217Z,10.87
2019-04-16T12:19:05.411Z,20.10
2019-04-16T12:21:53.048Z,14.60
2019-04-16T12:24:41.011Z,12.53
2019-04-16T12:27:39.909Z,12.10
2019-04-16T12:30:19.889Z,13.33
2019-04-16T12:33:21.522Z,12.10
2019-04-16T12:36:12.771Z,12.40
2019-04-16T12:38:57.884Z,10.00
2019-04-16T12:41:51.466Z,11.40
2019-04-16T12:44:45.708Z,10.17
2019-04-16T12:47:17.032Z,14.90
2019-04-16T12:50:04.831Z,13.30
2019-04-16T12:52:54.953Z,13.63
2019-04-16T12:55:32.817Z,13.53
2019-04-16T12:58:11.539Z,9.87
2019-04-16T13:01:04.654Z,14.47
2019-04-16T13:03:57.036Z,14.53
2019-04-16T13:06:38.892Z,14.37
2019-04-16T13:09:30.185Z,14.40
2019-04-16T13:12:11.218Z,14.17
2019-04-16T13:15:01.560Z,13.50
2019-04-16T13:17:51.731Z,13.10
2019-04-16T13:20:43.989Z,13.03
2019-04-16T13:23:22.195Z,9.50
2019-04-16T13:26:13.040Z,10.90
2019-04-16T13:28:41.995Z,13.13
2019-04-16T13:31:12.633Z,13.60
2019-04-16T13:33:43.523Z,13.63
2019-04-16T13:36:14.821Z,12.63
2019-04-16T13:38:50.418Z,14.27
2019-04-16T13:41:26.338Z,13.70
2019-04-16T13:43:58.522Z,12.40
2019-04-16T13:46:29.515Z,10.13
2019-04-16T13:49:12.174Z,9.77
2019-04-16T13:51:45.021Z,14.03
2019-04-16T13:54:34.088Z,15.27
2019-04-16T13:57:07.960Z,14.70
2019-04-16T14:00:03.203Z,15.23
2019-04-16T14:02:43.598Z,14.03
2019-04-16T14:05:14.160Z,10.80
2019-04-16T14:07:45.360Z,9.87
2019-04-16T14:10:15.986Z,12.95
2019-04-16T14:12:46.171Z,9.77
2019-04-16T14:15:30.800Z,12.00
2019-04-16T14:17:52.787Z,12.30
2019-04-16T14:20:20.518Z,11.70
2019-04-16T14:22:53.321Z,11.67
2019-04-16T14:25:22.776Z,10.15
2019-04-16T14:27:55.487Z,12.80
2019-04-16T14:30:28.590Z,12.47
2019-04-16T14:32:58.823Z,11.97
2019-04-16T14:35:34.465Z,10.77
2019-04-16T14:38:06.215Z,13.70
2019-04-16T14:40:39.460Z,11.20
2019-04-16T14:43:08.521Z,10.93
2019-04-16T14:45:58.246Z,11.60
2019-04-16T14:48:21.927Z,11.33
2019-04-16T14:50:52.194Z,11.30
2019-04-16T14:53:38.327Z,14.47
2019-04-16T14:56:16.484Z,9.83
2019-04-16T14:59:29.843Z,11.67
2019-04-16T15:01:58.085Z,13.83
2019-04-16T15:04:40.147Z,12.60
2019-04-16T15:07:29.357Z,13.53
2019-04-16T15:10:27.420Z,10.50
2019-04-16T15:13:06.448Z,11.77
2019-04-16T15:15:49.550Z,11.70
2019-04-16T15:18:31.280Z,11.50
2019-04-16T15:21:23.249Z,13.03
2019-04-16T15:24:10.947Z,11.40
2019-04-16T15:27:00.075Z,13.70
2019-04-16T15:29:56.527Z,9.43
2019-04-16T15:32:44.961Z,11.23
2019-04-16T15:35:20.432Z,11.63
2019-04-16T15:38:02.710Z,12.33
2019-04-16T15:40:39.346Z,11.60
2019-04-16T15:43:26.256Z,11.37
2019-04-16T15:46:26.170Z,10.43
2019-04-16T15:49:19.486Z,11.90
2019-04-16T15:52:12.815Z,9.73
2019-04-16T15:54:53.133Z,12.03
2019-04-16T15:57:45.049Z,14.20
2019-04-16T16:00:41.050Z,13.80
2019-04-16T16:03:28.902Z,10.37
2019-04-16T16:06:10.192Z,12.60
2019-04-16T16:08:45.589Z,10.93
2019-04-16T16:11:18.329Z,11.20
2019-04-16T16:13:48.466Z,10.57
2019-04-16T16:16:19.016Z,9.40
2019-04-16T16:18:49.381Z,11.90
2019-04-16T16:21:22.509Z,12.87
2019-04-16T16:23:52.680Z,10.33
2019-04-16T16:26:22.802Z,13.90
2019-04-16T16:28:53.006Z,10.90
2019-04-16T16:31:23.464Z,11.55
2019-04-16T16:33:53.567Z,9.87
2019-04-16T16:36:23.684Z,11.60
2019-04-16T16:38:54.215Z,10.47
2019-04-16T16:41:26.385Z,10.90
2019-04-16T16:44:00.744Z,11.10
2019-04-16T16:46:57.369Z,10.63
2019-04-16T16:49:26.910Z,10.03
2019-04-16T16:52:15.189Z,10.50
2019-04-16T16:54:46.907Z,10.73
2019-04-16T16:57:21.574Z,11.97
2019-04-16T17:00:13.203Z,9.77
2019-04-16T17:02:49.552Z,12.23
2019-04-16T17:05:27.219Z,10.40
2019-04-16T17:08:00.317Z,11.17
2019-04-16T17:10:31.544Z,10.50
2019-04-16T17:13:02.286Z,9.20
2019-04-16T17:15:32.762Z,10.77
2019-04-16T17:18:03.090Z,11.47
2019-04-16T17:20:33.519Z,11.50
2019-04-16T17:23:04.120Z,12.33
2019-04-16T17:25:36.709Z,11.27
2019-04-16T17:28:06.952Z,9.40
2019-04-16T17:30:37.528Z,11.90
2019-04-16T17:33:07.825Z,9.80
2019-04-16T17:35:37.987Z,10.43
2019-04-16T17:38:10.377Z,11.90
2019-04-16T17:40:58.657Z,9.10
2019-04-16T17:44:00.484Z,10.30
2019-04-16T17:46:42.475Z,10.70
2019-04-16T17:49:27.322Z,12.73
2019-04-16T17:52:22.864Z,10.70
2019-04-16T17:55:05.262Z,10.47
2019-04-16T17:57:48.208Z,11.40
2019-04-16T18:00:37.720Z,12.30
2019-04-16T18:03:30.856Z,14.13
2019-04-16T18:06:20.048Z,11.10
2019-04-16T18:09:12.238Z,12.33
2019-04-16T18:11:51.084Z,11.57
2019-04-16T18:14:50.988Z,11.30
2019-04-16T18:17:47.366Z,10.23
2019-04-16T18:20:36.595Z,11.40
2019-04-16T18:23:28.802Z,9.77
2019-04-16T18:26:16.616Z,12.57
2019-04-16T18:28:56.529Z,9.77
2019-04-16T18:31:33.243Z,12.47
2019-04-16T18:34:21.331Z,11.40
2019-04-16T18:37:05.076Z,13.60
2019-04-16T18:39:57.291Z,13.20
2019-04-16T18:42:52.845Z,13.00
2019-04-16T18:45:42.900Z,11.57
2019-04-16T18:48:18.573Z,12.50
2019-04-16T18:50:48.822Z,14.10
2019-04-16T18:53:19.112Z,13.27
2019-04-16T18:55:49.385Z,12.07
2019-04-16T18:58:26.187Z,11.45
2019-04-16T19:01:24.537Z,11.90
2019-04-16T19:03:53.668Z,12.83
2019-04-16T19:06:24.005Z,11.30
2019-04-16T19:08:54.798Z,11.57
2019-04-16T19:11:25.114Z,13.40
2019-04-16T19:13:55.452Z,11.30
2019-04-16T19:16:39.595Z,12.53
2019-04-16T19:19:14.315Z,13.37
2019-04-16T19:21:44.740Z,13.30
2019-04-16T19:24:16.399Z,12.18
2019-04-16T19:26:47.034Z,16.97
2019-04-16T19:29:17.813Z,11.23
2019-04-16T19:31:48.363Z,12.67
2019-04-16T19:34:18.771Z,12.73
2019-04-16T19:36:49.203Z,12.97
2019-04-16T19:39:19.495Z,14.60
2019-04-16T19:41:52.991Z,12.97
2019-04-16T19:44:21.745Z,13.30
2019-04-16T19:46:53.934Z,12.10
2019-04-16T19:49:24.486Z,16.10
2019-04-16T19:51:54.799Z,13.07
2019-04-16T19:54:25.103Z,13.90
2019-04-16T19:56:55.440Z,11.53
2019-04-16T19:59:25.702Z,14.80
2019-04-16T20:02:00.237Z,13.13
2019-04-16T20:04:28.069Z,13.33
2019-04-16T20:07:06.373Z,12.93
2019-04-16T20:09:39.034Z,14.50
2019-04-16T20:12:08.822Z,12.57
2019-04-16T20:14:44.974Z,12.13
2019-04-16T20:17:23.184Z,12.88
2019-04-16T20:20:00.038Z,14.00
2019-04-16T20:22:31.142Z,12.37
2019-04-16T20:25:02.545Z,12.17
2019-04-16T20:27:32.826Z,13.43
2019-04-16T20:30:03.285Z,13.80
2019-04-16T20:32:35.004Z,12.23
2019-04-16T20:35:06.961Z,12.73
2019-04-16T20:37:37.269Z,13.40
2019-04-16T20:40:08.719Z,12.97
2019-04-16T20:42:38.970Z,15.00
2019-04-16T20:45:09.541Z,13.03
2019-04-16T20:47:40.170Z,11.43
2019-04-16T20:50:10.761Z,12.90
2019-04-16T20:52:41.210Z,19.83
2019-04-16T20:55:16.030Z,12.87
2019-04-16T20:57:45.545Z,18.73
2019-04-16T21:00:21.425Z,14.00
2019-04-16T21:02:51.924Z,17.13
2019-04-16T21:05:22.758Z,15.78
2019-04-16T21:07:54.667Z,14.10
2019-04-16T21:10:24.910Z,15.97
2019-04-16T21:12:58.566Z,15.50
2019-04-16T21:15:28.986Z,14.47
2019-04-16T21:17:59.505Z,13.67
2019-04-16T21:20:29.900Z,13.83
2019-04-16T21:23:01.915Z,12.73
2019-04-16T21:25:32.255Z,13.30
2019-04-16T21:28:22.205Z,14.10
2019-04-16T21:30:57.256Z,11.57
2019-04-16T21:33:32.767Z,10.87
2019-04-16T21:36:05.103Z,12.13
2019-04-16T21:38:48.951Z,12.13
2019-04-16T21:41:19.760Z,11.78
2019-04-16T21:43:49.925Z,11.67
2019-04-16T21:46:21.094Z,13.50
2019-04-16T21:48:51.611Z,10.73
2019-04-16T21:51:24.262Z,16.40
2019-04-16T21:53:53.723Z,12.17
2019-04-16T21:56:23.952Z,11.60
2019-04-16T21:58:54.052Z,12.73
2019-04-16T22:01:36.853Z,10.13
2019-04-16T22:04:14.614Z,14.37
2019-04-16T22:06:46.084Z,12.33
2019-04-16T22:09:17.983Z,13.37
2019-04-16T22:11:48.141Z,14.83
2019-04-16T22:14:22.020Z,13.00
2019-04-16T22:16:50.187Z,12.30
2019-04-16T22:19:20.326Z,14.00
2019-04-16T22:21:50.681Z,14.60
2019-04-16T22:24:22.683Z,14.20
2019-04-16T22:26:53.858Z,13.73
2019-04-16T22:29:24.055Z,16.07
2019-04-16T22:31:58.272Z,15.63
2019-04-16T22:34:28.760Z,15.87
2019-04-16T22:36:58.974Z,14.13
2019-04-16T22:39:34.154Z,15.30
2019-04-16T22:42:23.297Z,15.20
2019-04-16T22:45:10.910Z,13.40
2019-04-16T22:47:42.577Z,16.00
2019-04-16T22:50:16.950Z,16.20
2019-04-16T22:52:46.060Z,14.10
2019-04-16T22:55:17.061Z,17.42
2019-04-16T22:57:47.356Z,15.67
2019-04-16T23:00:29.389Z,15.93
2019-04-16T23:02:59.881Z,14.23
2019-04-16T23:05:30.792Z,16.43
2019-04-16T23:08:02.085Z,14.57
2019-04-16T23:10:32.181Z,18.10
2019-04-16T23:13:03.188Z,15.13
2019-04-16T23:15:33.962Z,15.97
2019-04-16T23:18:04.187Z,19.50
2019-04-16T23:20:36.989Z,18.10
2019-04-16T23:23:07.348Z,15.60
2019-04-16T23:25:37.667Z,14.90
2019-04-16T23:28:10.634Z,13.97
2019-04-16T23:30:39.990Z,14.27
2019-04-16T23:33:10.164Z,16.30
2019-04-16T23:35:44.303Z,16.57
2019-04-16T23:38:12.270Z,16.60
2019-04-16T23:40:43.934Z,16.33
2019-04-16T23:43:32.942Z,18.37
2019-04-16T23:46:20.999Z,15.60
2019-04-16T23:49:07.526Z,18.37
2019-04-16T23:51:41.982Z,14.43
2019-04-16T23:54:22.437Z,15.70
2019-04-16T23:57:07.564Z,17.90
2019-04-16T23:59:59.399Z,16.80
